Time;durP1;ratioP1;P1;durP2;ratioP2;P2;SDS_P1;SDS_P2;PMS_P1;PMS_P2;Temp;Humidity;BMP_temperature;BMP_pressure;BME280_temperature;BME280_humidity;BME280_pressure;Samples;Min_cycle;Max_cycle;Signal;HPM_P1;HPM_P2
2022/09/08 00:00:15;;;;;;;4.03;2.07;;;19.10;99.90;;;;;;4955901;28;20206;-88
2022/09/08 00:02:40;;;;;;;4.83;2.10;;;19.10;99.90;;;;;;4954018;28;20445;-87
2022/09/08 00:05:10;;;;;;;6.53;2.30;;;19.00;99.90;;;;;;4962816;28;20179;-87
2022/09/08 00:07:35;;;;;;;3.60;2.10;;;18.90;99.90;;;;;;4973773;28;20904;-86
2022/09/08 00:10:02;;;;;;;3.23;2.80;;;18.90;99.90;;;;;;4980934;28;20540;-87
2022/09/08 00:12:28;;;;;;;5.10;2.70;;;18.90;99.90;;;;;;4976042;28;20183;-87
2022/09/08 00:14:55;;;;;;;2.67;2.27;;;18.80;99.90;;;;;;4964181;28;20458;-87
2022/09/08 00:17:22;;;;;;;3.73;3.03;;;18.70;99.90;;;;;;4960517;28;20187;-86
2022/09/08 00:19:47;;;;;;;3.50;2.77;;;18.60;99.90;;;;;;4989559;28;20486;-87
2022/09/08 00:22:13;;;;;;;3.93;3.13;;;18.50;99.90;;;;;;4962419;28;20474;-87
2022/09/08 00:24:39;;;;;;;4.10;3.00;;;18.30;99.90;;;;;;4996984;23;20219;-86
2022/09/08 00:27:05;;;;;;;2.80;2.50;;;18.40;99.90;;;;;;5015074;28;20542;-87
2022/09/08 00:29:30;;;;;;;6.23;4.13;;;18.40;99.90;;;;;;4984257;28;20477;-87
2022/09/08 00:31:56;;;;;;;6.27;4.20;;;18.20;99.90;;;;;;4980656;28;20203;-88
2022/09/08 00:34:22;;;;;;;6.73;3.70;;;18.20;99.90;;;;;;4976163;28;20247;-89
2022/09/08 00:36:48;;;;;;;5.77;2.97;;;;;;;;;;4976891;28;20187;-86
2022/09/08 00:39:15;;;;;;;6.00;3.70;;;18.10;99.90;;;;;;4981700;28;20203;-87
2022/09/08 00:41:42;;;;;;;8.07;3.00;;;18.10;99.90;;;;;;4978069;28;20935;-87
2022/09/08 00:44:39;;;;;;;5.13;3.60;;;18.00;99.90;;;;;;4984347;28;20422;-86
2022/09/08 00:47:35;;;;;;;4.47;3.70;;;18.00;99.90;;;;;;4999857;28;20435;-88
2022/09/08 00:50:15;;;;;;;9.30;4.30;;;18.00;99.90;;;;;;4989742;23;20537;-86
2022/09/08 00:52:41;;;;;;;4.27;3.10;;;;;;;;;;4962506;28;20498;-87
2022/09/08 00:55:08;;;;;;;8.33;3.93;;;17.90;99.90;;;;;;4961299;28;20442;-86
2022/09/08 00:57:33;;;;;;;4.27;3.17;;;17.80;99.90;;;;;;4979143;28;20438;-86
2022/09/08 01:00:00;;;;;;;10.53;3.80;;;17.90;99.90;;;;;;4957912;28;20462;-85
2022/09/08 01:02:26;;;;;;;4.37;3.70;;;17.90;99.90;;;;;;4955635;28;20195;-87
2022/09/08 01:05:06;;;;;;;4.40;3.40;;;17.90;99.90;;;;;;4975045;28;21001;-87
2022/09/08 01:13:32;;;;;;;4.50;3.60;;;18.00;99.90;;;;;;4977414;28;20782;-86
2022/09/08 01:15:57;;;;;;;3.70;3.23;;;18.00;99.90;;;;;;4982692;28;20539;-88
2022/09/08 01:18:23;;;;;;;4.90;2.70;;;18.00;99.90;;;;;;4977977;28;20427;-88
2022/09/08 01:21:03;;;;;;;5.87;3.13;;;18.00;99.90;;;;;;4971002;28;20209;-89
2022/09/08 01:23:56;;;;;;;3.43;2.50;;;17.90;99.90;;;;;;4976208;28;20183;-89
2022/09/08 01:26:41;;;;;;;5.33;3.37;;;18.00;99.90;;;;;;4977527;28;20442;-89
2022/09/08 01:29:09;;;;;;;3.50;3.00;;;18.20;99.90;;;;;;4953934;28;20566;-89
2022/09/08 01:31:39;;;;;;;3.80;2.73;;;18.30;99.90;;;;;;4974468;28;20885;-87
2022/09/08 01:34:05;;;;;;;2.67;2.47;;;;;;;;;;4978674;28;20875;-89
2022/09/08 01:36:31;;;;;;;5.60;2.60;;;18.30;99.90;;;;;;4971455;28;21737;-86
2022/09/08 01:38:56;;;;;;;2.77;2.50;;;18.20;99.90;;;;;;4968135;28;20891;-86
2022/09/08 01:41:22;;;;;;;3.73;2.50;;;18.20;99.90;;;;;;4986079;28;20203;-89
2022/09/08 01:43:48;;;;;;;4.33;3.50;;;;;;;;;;4969184;28;20203;-89
2022/09/08 01:46:13;;;;;;;4.50;2.63;;;18.00;99.90;;;;;;4983140;28;20185;-89
2022/09/08 01:48:39;;;;;;;3.83;2.97;;;17.90;99.90;;;;;;4970368;28;20528;-89
2022/09/08 01:51:07;;;;;;;6.00;3.30;;;17.90;99.90;;;;;;4980220;28;20211;-89
2022/09/08 01:53:33;;;;;;;2.87;2.63;;;17.80;99.90;;;;;;4987559;28;20181;-87
2022/09/08 01:55:58;;;;;;;5.43;3.60;;;17.70;99.90;;;;;;4975025;28;20435;-87
2022/09/08 01:58:24;;;;;;;4.60;3.10;;;17.60;99.90;;;;;;4963990;28;20437;-86
2022/09/08 02:00:50;;;;;;;3.57;2.93;;;17.60;99.90;;;;;;4967061;28;20215;-88
2022/09/08 02:03:16;;;;;;;9.83;3.80;;;17.50;99.90;;;;;;4958298;28;20517;-88
2022/09/08 02:05:43;;;;;;;7.20;4.13;;;17.50;99.90;;;;;;4979427;28;20431;-85
2022/09/08 02:08:10;;;;;;;3.73;3.37;;;17.50;99.90;;;;;;4955152;28;20291;-87
2022/09/08 02:10:36;;;;;;;5.23;4.00;;;17.50;99.90;;;;;;4973657;28;20927;-88
2022/09/08 02:13:02;;;;;;;7.00;3.63;;;17.40;99.90;;;;;;4971233;28;21448;-87
2022/09/08 02:15:28;;;;;;;5.40;3.73;;;18.90;99.90;;;;;;4969389;28;21535;-87
2022/09/08 02:17:54;;;;;;;10.37;4.20;;;17.50;99.90;;;;;;4971065;28;20433;-87
2022/09/08 02:20:21;;;;;;;5.40;3.70;;;17.40;99.90;;;;;;4959765;28;20298;-88
2022/09/08 02:22:46;;;;;;;7.73;3.93;;;17.40;99.90;;;;;;4995244;28;20186;-88
2022/09/08 02:25:12;;;;;;;6.80;4.00;;;17.40;99.90;;;;;;4981184;28;20419;-89
2022/09/08 02:27:37;;;;;;;7.37;4.20;;;17.40;99.90;;;;;;4980935;28;20456;-89
2022/09/08 02:30:03;;;;;;;11.10;6.13;;;17.40;99.90;;;;;;4980501;28;20215;-88
2022/09/08 02:32:29;;;;;;;6.97;3.60;;;17.40;99.90;;;;;;4979872;28;20205;-88
2022/09/08 02:34:54;;;;;;;6.33;4.10;;;17.40;99.90;;;;;;4992765;28;22124;-88
2022/09/08 02:37:20;;;;;;;4.83;3.90;;;17.40;99.90;;;;;;4994254;28;20237;-89
2022/09/08 02:39:47;;;;;;;4.30;3.77;;;17.40;99.90;;;;;;4979239;28;20229;-89
2022/09/08 02:42:12;;;;;;;7.70;4.27;;;17.40;99.90;;;;;;4979642;28;20636;-89
2022/09/08 02:44:38;;;;;;;4.53;4.13;;;17.40;99.90;;;;;;4998485;28;20445;-90
2022/09/08 02:47:05;;;;;;;7.40;3.70;;;17.40;99.90;;;;;;4986467;28;20214;-90
2022/09/08 02:49:32;;;;;;;4.70;3.53;;;;;;;;;;4978844;28;20390;-90
2022/09/08 02:51:58;;;;;;;10.00;5.20;;;17.40;99.90;;;;;;4984602;28;20462;-88
2022/09/08 02:54:23;;;;;;;5.83;4.63;;;17.50;99.90;;;;;;4971859;28;20466;-89
2022/09/08 02:56:49;;;;;;;5.53;3.60;;;18.00;99.90;;;;;;4985099;28;21111;-88
2022/09/08 02:59:15;;;;;;;6.53;3.90;;;17.50;99.90;;;;;;4968279;28;20203;-89
2022/09/08 03:01:42;;;;;;;5.20;3.60;;;17.50;99.90;;;;;;4979318;28;20207;-93
2022/09/08 03:04:08;;;;;;;10.90;3.80;;;17.50;99.90;;;;;;4986098;28;20425;-93
2022/09/08 03:06:34;;;;;;;9.03;3.47;;;;;;;;;;4992890;28;20437;-92
2022/09/08 03:09:00;;;;;;;7.00;4.30;;;;;;;;;;4993379;28;20203;-92
2022/09/08 03:11:25;;;;;;;5.10;3.40;;;17.60;99.90;;;;;;4990889;28;20504;-93
2022/09/08 03:13:51;;;;;;;9.20;4.17;;;;;;;;;;4987074;28;20580;-92
2022/09/08 03:16:17;;;;;;;8.27;4.03;;;;;;;;;;5001615;28;20692;-91
2022/09/08 03:18:43;;;;;;;6.10;3.30;;;;;;;;;;4971064;28;20445;-85
2022/09/08 03:21:14;;;;;;;7.57;3.60;;;17.60;99.90;;;;;;4962212;28;20451;-85
2022/09/08 03:23:39;;;;;;;8.70;3.57;;;17.70;99.90;;;;;;4957260;28;20490;-85
2022/09/08 03:26:14;;;;;;;5.40;2.93;;;17.80;99.90;;;;;;4962772;28;20462;-84
2022/09/08 03:28:40;;;;;;;6.20;3.53;;;17.90;99.90;;;;;;4988177;28;20209;-90
2022/09/08 03:31:08;;;;;;;3.80;2.90;;;17.80;99.90;;;;;;4983849;28;20449;-90
2022/09/08 03:33:35;;;;;;;4.50;3.17;;;17.80;99.90;;;;;;4980042;28;20446;-90
2022/09/08 03:36:03;;;;;;;3.43;2.90;;;17.90;99.90;;;;;;4981580;28;20581;-89
2022/09/08 03:38:29;;;;;;;3.10;2.73;;;17.90;99.90;;;;;;4980907;28;20441;-90
2022/09/08 03:40:55;;;;;;;5.80;4.00;;;17.90;99.90;;;;;;4975561;28;20458;-90
2022/09/08 03:43:21;;;;;;;4.47;2.97;;;;;;;;;;4976970;28;20422;-91
2022/09/08 03:45:47;;;;;;;6.23;2.90;;;;;;;;;;4978109;28;20218;-91
2022/09/08 03:48:14;;;;;;;3.07;2.63;;;17.90;99.90;;;;;;4981039;28;20462;-90
2022/09/08 03:50:40;;;;;;;9.50;3.20;;;17.90;99.90;;;;;;4981553;28;20804;-89
2022/09/08 03:53:08;;;;;;;6.00;4.87;;;17.90;99.90;;;;;;4983661;28;20540;-90
2022/09/08 03:55:34;;;;;;;4.27;3.90;;;;;;;;;;4983591;28;20438;-90
2022/09/08 03:58:01;;;;;;;4.07;2.90;;;;;;;;;;4985167;28;20795;-90
2022/09/08 04:00:27;;;;;;;6.37;3.03;;;17.80;99.90;;;;;;4985847;28;20454;-92
2022/09/08 04:02:54;;;;;;;5.70;2.80;;;;;;;;;;4985923;28;20484;-91
2022/09/08 04:05:21;;;;;;;3.70;3.30;;;;;;;;;;4996493;28;20426;-93
2022/09/08 04:07:47;;;;;;;4.53;3.27;;;;;;;;;;5000076;28;20438;-92
2022/09/08 04:10:13;;;;;;;6.07;3.30;;;;;;;;;;4998822;28;20473;-92
2022/09/08 04:12:40;;;;;;;3.20;2.90;;;;;;;;;;4999931;28;20410;-93
2022/09/08 04:15:06;;;;;;;6.03;3.23;;;17.60;99.90;;;;;;5000760;28;20437;-91
2022/09/08 04:17:32;;;;;;;5.87;3.13;;;;;;;;;;5002591;28;20410;-92
2022/09/08 04:19:58;;;;;;;5.93;3.70;;;;;;;;;;5000624;28;20457;-90
2022/09/08 04:22:25;;;;;;;9.43;4.27;;;;;;;;;;4996048;28;20510;-93
2022/09/08 04:24:51;;;;;;;4.00;3.53;;;;;;;;;;4985987;28;20684;-91
2022/09/08 04:27:18;;;;;;;4.50;3.43;;;17.50;99.90;;;;;;4983560;28;20426;-89
2022/09/08 04:29:43;;;;;;;4.00;3.37;;;17.50;99.90;;;;;;4978325;28;20470;-90
2022/09/08 04:32:09;;;;;;;3.80;3.20;;;17.50;99.90;;;;;;4977471;28;20861;-89
2022/09/08 04:34:35;;;;;;;4.90;3.70;;;17.40;99.90;;;;;;4992970;28;20548;-89
2022/09/08 04:37:02;;;;;;;5.83;3.67;;;17.40;99.90;;;;;;4983711;28;20183;-91
2022/09/08 04:39:29;;;;;;;3.67;3.27;;;17.40;99.90;;;;;;4982789;28;20446;-89
2022/09/08 04:41:55;;;;;;;5.27;3.27;;;17.40;99.90;;;;;;4973584;28;20442;-90
2022/09/08 04:44:20;;;;;;;5.40;3.80;;;17.30;99.90;;;;;;4983148;28;20519;-91
2022/09/08 04:46:47;;;;;;;5.30;4.00;;;17.30;99.90;;;;;;4985900;28;20187;-92
2022/09/08 04:49:12;;;;;;;5.40;3.10;;;17.30;99.90;;;;;;4988375;28;20725;-90
2022/09/08 04:51:38;;;;;;;5.77;3.60;;;17.20;99.90;;;;;;4982801;28;20430;-91
2022/09/08 04:54:04;;;;;;;3.37;3.07;;;18.60;99.90;;;;;;4977653;28;20183;-90
2022/09/08 04:56:30;;;;;;;5.93;3.20;;;;;;;;;;4990876;28;20185;-89
2022/09/08 04:58:59;;;;;;;6.67;2.77;;;17.30;99.90;;;;;;4991407;28;20190;-91
2022/09/08 05:01:28;;;;;;;4.13;3.03;;;17.30;99.90;;;;;;4987185;28;21012;-91
2022/09/08 05:03:56;;;;;;;3.13;2.83;;;17.30;99.90;;;;;;5000388;28;20442;-91
2022/09/08 05:06:22;;;;;;;2.87;2.50;;;17.30;99.90;;;;;;4984013;28;20434;-91
2022/09/08 05:08:49;;;;;;;2.53;2.10;;;17.30;99.90;;;;;;4983733;28;20465;-91
2022/09/08 05:11:17;;;;;;;2.33;2.07;;;17.40;99.90;;;;;;4984392;28;20442;-91
2022/09/08 05:13:42;;;;;;;2.17;1.97;;;17.40;99.90;;;;;;4983846;28;20423;-91
2022/09/08 05:16:13;;;;;;;2.73;1.97;;;17.40;99.90;;;;;;4981464;28;20735;-89
2022/09/08 05:18:39;;;;;;;3.07;1.77;;;17.40;99.90;;;;;;4973031;28;20221;-90
2022/09/08 05:21:07;;;;;;;2.50;1.93;;;18.50;99.90;;;;;;4982924;28;20458;-88
2022/09/08 05:23:32;;;;;;;1.83;1.70;;;17.20;99.90;;;;;;4981554;28;20497;-89
2022/09/08 05:26:06;;;;;;;1.60;1.33;;;17.20;99.90;;;;;;4978813;28;20957;-88
2022/09/08 05:28:35;;;;;;;6.13;1.20;;;17.10;99.90;;;;;;4982185;28;20261;-87
2022/09/08 05:31:01;;;;;;;2.73;1.80;;;17.00;99.90;;;;;;4970690;28;20522;-91
2022/09/08 05:33:27;;;;;;;1.10;1.00;;;17.10;99.90;;;;;;4980134;28;20462;-90
2022/09/08 05:35:53;;;;;;;1.70;1.07;;;16.80;99.90;;;;;;4982640;28;20442;-90
2022/09/08 05:38:20;;;;;;;1.10;0.80;;;16.80;99.90;;;;;;4979775;28;20447;-89
2022/09/08 05:40:46;;;;;;;1.20;0.73;;;16.60;99.90;;;;;;4967270;28;20469;-85
2022/09/08 05:43:11;;;;;;;2.40;0.90;;;16.50;99.90;;;;;;4959216;28;20836;-85
2022/09/08 05:45:37;;;;;;;5.60;0.90;;;16.50;99.90;;;;;;4951543;28;20435;-84
2022/09/08 05:48:03;;;;;;;1.03;0.83;;;16.40;99.90;;;;;;4971577;28;20206;-84
2022/09/08 05:50:34;;;;;;;0.87;0.77;;;16.30;99.90;;;;;;4971629;28;20214;-84
2022/09/08 05:53:01;;;;;;;0.90;0.70;;;16.30;99.90;;;;;;4965136;28;20466;-84
2022/09/08 05:55:28;;;;;;;0.90;0.60;;;16.20;99.90;;;;;;4956372;28;20449;-84
2022/09/08 05:57:54;;;;;;;0.87;0.70;;;16.10;99.90;;;;;;4971368;28;20529;-85
2022/09/08 06:00:21;;;;;;;2.63;0.90;;;16.10;99.90;;;;;;4950934;28;20503;-84
2022/09/08 06:02:51;;;;;;;1.33;0.80;;;16.00;99.90;;;;;;4943104;28;20451;-84
2022/09/08 06:05:19;;;;;;;2.30;0.80;;;16.10;99.90;;;;;;4964588;28;20546;-85
2022/09/08 06:07:45;;;;;;;1.30;0.90;;;16.10;99.90;;;;;;4975934;28;20450;-84
2022/09/08 06:10:10;;;;;;;2.40;1.10;;;16.00;99.90;;;;;;4962086;28;20471;-85
2022/09/08 06:12:36;;;;;;;2.23;0.77;;;16.00;99.90;;;;;;4968161;28;20188;-84
2022/09/08 06:15:01;;;;;;;4.33;0.83;;;16.00;99.90;;;;;;4969340;28;20238;-85
2022/09/08 06:17:26;;;;;;;4.10;1.10;;;16.00;99.90;;;;;;4953051;28;20202;-85
2022/09/08 06:19:52;;;;;;;1.00;0.73;;;16.10;99.90;;;;;;4954864;28;20211;-85
2022/09/08 06:22:18;;;;;;;2.10;0.77;;;16.20;99.90;;;;;;4973441;28;20684;-85
2022/09/08 06:24:43;;;;;;;1.57;0.80;;;16.20;99.90;;;;;;4975837;28;20582;-84
2022/09/08 06:27:26;;;;;;;1.43;0.80;;;16.30;99.90;;;;;;4971706;28;20281;-85
2022/09/08 06:30:08;;;;;;;1.10;0.70;;;16.20;99.90;;;;;;4967759;28;20241;-84
2022/09/08 06:32:40;;;;;;;0.77;0.60;;;16.10;99.90;;;;;;4953421;28;20435;-85
2022/09/08 06:35:29;;;;;;;0.83;0.70;;;16.20;99.90;;;;;;4954358;28;20439;-84
2022/09/08 06:38:11;;;;;;;0.80;0.70;;;16.20;99.90;;;;;;4966288;28;20871;-85
2022/09/08 06:40:45;;;;;;;1.70;0.63;;;16.20;99.90;;;;;;4952216;28;20789;-84
2022/09/08 06:43:30;;;;;;;1.27;0.70;;;16.10;99.90;;;;;;4967130;28;20516;-84
2022/09/08 06:45:57;;;;;;;0.70;0.60;;;16.00;99.90;;;;;;4949178;28;20443;-85
2022/09/08 06:48:26;;;;;;;2.20;1.20;;;16.00;99.90;;;;;;4956189;28;20549;-85
2022/09/08 06:51:18;;;;;;;1.30;0.80;;;15.90;99.90;;;;;;4967596;28;20489;-84
2022/09/08 06:53:59;;;;;;;1.30;1.10;;;15.80;99.90;;;;;;4960184;28;20453;-84
2022/09/08 06:56:38;;;;;;;2.40;0.70;;;15.80;99.90;;;;;;4970056;28;21276;-84
2022/09/08 06:59:20;;;;;;;1.13;0.90;;;15.90;99.90;;;;;;4948800;28;20462;-83
2022/09/08 07:02:10;;;;;;;1.97;0.60;;;15.90;99.90;;;;;;4961839;28;20529;-84
2022/09/08 07:04:45;;;;;;;0.83;0.63;;;16.00;99.90;;;;;;4962211;28;20442;-88
2022/09/08 07:07:37;;;;;;;0.80;0.80;;;16.00;99.90;;;;;;4966092;28;21038;-84
2022/09/08 07:10:09;;;;;;;1.43;0.70;;;16.00;99.90;;;;;;4962990;28;20481;-84
2022/09/08 07:13:14;;;;;;;2.87;0.80;;;16.00;99.90;;;;;;4952203;28;20459;-84
2022/09/08 07:16:01;;;;;;;1.10;0.70;;;16.00;99.90;;;;;;4948454;28;21689;-84
2022/09/08 07:18:33;;;;;;;1.47;0.97;;;16.10;99.90;;;;;;4953481;28;20524;-84
2022/09/08 07:21:23;;;;;;;2.20;0.90;;;16.10;99.90;;;;;;4945856;28;20463;-84
2022/09/08 07:23:50;;;;;;;0.70;0.60;;;16.10;99.90;;;;;;4954899;28;21010;-84
2022/09/08 07:26:22;;;;;;;1.00;0.60;;;16.40;99.90;;;;;;4967563;28;20442;-86
2022/09/08 07:28:51;;;;;;;1.87;0.67;;;16.40;99.90;;;;;;4949515;28;21090;-84
2022/09/08 07:31:22;;;;;;;1.23;0.80;;;16.50;99.90;;;;;;4968329;28;21031;-84
2022/09/08 07:33:53;;;;;;;2.93;0.60;;;16.50;99.90;;;;;;4969274;28;20950;-81
2022/09/08 07:36:25;;;;;;;1.67;0.73;;;16.70;99.90;;;;;;4969542;28;20472;-81
2022/09/08 07:39:02;;;;;;;1.37;0.60;;;16.70;99.90;;;;;;4968504;28;20445;-80
2022/09/08 07:41:59;;;;;;;1.53;0.70;;;16.80;99.90;;;;;;4966925;28;20459;-80
2022/09/08 07:44:25;;;;;;;0.60;0.47;;;16.80;99.90;;;;;;4966861;28;20442;-79
2022/09/08 07:47:12;;;;;;;0.60;0.50;;;17.00;99.90;;;;;;4967767;28;20534;-81
2022/09/08 07:50:15;;;;;;;1.10;0.60;;;17.30;99.90;;;;;;4973544;28;20454;-80
2022/09/08 07:52:47;;;;;;;1.83;0.60;;;18.50;99.90;;;;;;4970384;28;20447;-80
2022/09/08 07:55:34;;;;;;;1.70;0.70;;;19.70;99.90;;;;;;4972722;28;20436;-80
2022/09/08 07:58:21;;;;;;;0.70;0.50;;;20.20;99.90;;;;;;4975579;28;20967;-80
2022/09/08 08:00:49;;;;;;;0.93;0.50;;;20.00;99.90;;;;;;4957794;28;20875;-81
2022/09/08 08:03:44;;;;;;;1.53;0.80;;;20.10;99.90;;;;;;4971549;28;20430;-81
2022/09/08 08:06:41;;;;;;;2.10;1.03;;;21.70;99.90;;;;;;4973808;28;20436;-82
2022/09/08 08:09:37;;;;;;;0.70;0.63;;;22.20;99.90;;;;;;4955431;28;20462;-81
2022/09/08 08:12:21;;;;;;;0.80;0.50;;;22.40;99.90;;;;;;4956202;28;20445;-81
2022/09/08 08:15:01;;;;;;;1.30;0.60;;;21.50;99.90;;;;;;4965779;28;20453;-80
2022/09/08 08:17:41;;;;;;;1.03;0.70;;;21.00;99.90;;;;;;4969396;28;20431;-80
2022/09/08 08:20:16;;;;;;;0.80;0.60;;;22.10;99.90;;;;;;4969808;28;20464;-83
2022/09/08 08:22:53;;;;;;;1.60;0.57;;;21.80;99.90;;;;;;4960583;28;20429;-90
2022/09/08 08:25:25;;;;;;;1.73;0.60;;;20.40;99.90;;;;;;4961000;28;20474;-90
2022/09/08 08:28:14;;;;;;;1.53;0.70;;;20.30;99.90;;;;;;4971318;28;20464;-88
2022/09/08 08:31:10;;;;;;;0.90;0.60;;;19.80;99.90;;;;;;4964559;28;20524;-90
2022/09/08 08:33:47;;;;;;;1.43;0.73;;;19.50;99.90;;;;;;4965670;28;20508;-89
2022/09/08 08:36:15;;;;;;;1.43;0.50;;;19.50;99.90;;;;;;4974507;28;20453;-88
2022/09/08 08:38:47;;;;;;;0.50;0.40;;;19.40;99.90;;;;;;4975762;28;20781;-90
2022/09/08 08:41:51;;;;;;;3.43;0.90;;;19.20;99.90;;;;;;4973763;28;20446;-91
2022/09/08 08:44:47;;;;;;;0.60;0.50;;;19.00;99.90;;;;;;4974718;28;20418;-90
2022/09/08 08:47:19;;;;;;;2.10;0.80;;;18.50;99.90;;;;;;4974586;28;20418;-90
2022/09/08 08:50:07;;;;;;;4.10;0.60;;;17.70;99.90;;;;;;4975705;28;20541;-90
2022/09/08 08:53:21;;;;;;;4.30;0.73;;;17.80;99.90;;;;;;4963236;28;20422;-91
2022/09/08 08:56:08;;;;;;;1.03;0.67;;;17.40;99.90;;;;;;4941779;28;20464;-90
2022/09/08 08:59:25;;;;;;;0.80;0.60;;;17.20;99.90;;;;;;4978420;28;20422;-91
2022/09/08 09:02:03;;;;;;;1.47;0.70;;;17.50;99.90;;;;;;4934741;29;20458;-90
2022/09/08 09:05:10;;;;;;;3.20;0.97;;;18.00;99.90;;;;;;4987711;28;20417;-90
2022/09/08 09:08:03;;;;;;;1.17;0.83;;;18.20;99.90;;;;;;4976099;28;20410;-90
2022/09/08 09:10:47;;;;;;;1.47;0.80;;;18.50;99.90;;;;;;4975562;28;20505;-90
2022/09/08 09:13:41;;;;;;;3.70;0.60;;;19.80;99.90;;;;;;4992652;28;20406;-90
2022/09/08 09:16:22;;;;;;;2.03;0.83;;;19.60;99.90;;;;;;4975301;28;20461;-91
2022/09/08 09:19:09;;;;;;;1.80;0.90;;;19.40;99.90;;;;;;4974769;28;20418;-91
2022/09/08 09:21:54;;;;;;;1.27;1.17;;;19.50;99.90;;;;;;4975086;28;20414;-90
2022/09/08 09:24:50;;;;;;;4.30;0.90;;;19.50;99.90;;;;;;4975913;28;20445;-91
2022/09/08 09:27:38;;;;;;;3.20;0.90;;;19.50;99.90;;;;;;4975124;28;20495;-91
2022/09/08 09:30:19;;;;;;;1.10;0.97;;;19.70;99.90;;;;;;4973640;28;20476;-91
2022/09/08 09:33:27;;;;;;;1.17;0.80;;;20.00;99.90;;;;;;4974579;28;20422;-90
2022/09/08 09:36:05;;;;;;;2.40;0.90;;;20.50;99.90;;;;;;4974147;28;20454;-91
2022/09/08 09:38:46;;;;;;;1.03;0.93;;;21.10;99.90;;;;;;4974205;28;20457;-90
2022/09/08 09:41:55;;;;;;;0.70;0.70;;;20.20;99.90;;;;;;4991088;28;20446;-90
2022/09/08 09:44:36;;;;;;;2.63;0.73;;;20.00;99.90;;;;;;4930370;29;20596;-92
2022/09/08 09:47:19;;;;;;;1.63;0.90;;;20.20;99.90;;;;;;4988440;28;20953;-90
2022/09/08 09:50:31;;;;;;;2.13;0.93;;;20.10;99.90;;;;;;4973589;28;20849;-90
2022/09/08 09:53:31;;;;;;;1.10;0.73;;;20.50;99.90;;;;;;4974254;28;20937;-91
2022/09/08 09:56:12;;;;;;;1.50;1.10;;;20.60;99.90;;;;;;4954455;28;20785;-90
2022/09/08 09:59:14;;;;;;;1.70;0.90;;;21.50;99.90;;;;;;4955043;28;21090;-90
2022/09/08 10:01:46;;;;;;;2.70;0.80;;;21.00;99.90;;;;;;4955681;28;20430;-90
2022/09/08 10:04:39;;;;;;;1.07;0.70;;;20.80;99.90;;;;;;4963136;28;20431;-90
2022/09/08 10:07:23;;;;;;;1.17;0.70;;;20.30;99.90;;;;;;4960887;28;20798;-89
2022/09/08 10:10:21;;;;;;;1.10;0.90;;;19.60;99.90;;;;;;4974983;28;20985;-90
2022/09/08 10:13:13;;;;;;;1.40;0.83;;;19.70;99.90;;;;;;4963685;28;20435;-90
2022/09/08 10:16:00;;;;;;;1.63;0.70;;;19.70;99.90;;;;;;4973057;28;20427;-90
2022/09/08 10:18:39;;;;;;;3.83;1.00;;;19.70;99.90;;;;;;4970529;28;20980;-90
2022/09/08 10:21:16;;;;;;;1.63;0.80;;;19.70;99.90;;;;;;4960523;28;20446;-90
2022/09/08 10:24:03;;;;;;;2.90;0.90;;;20.00;99.90;;;;;;4997371;28;20457;-91
2022/09/08 10:26:37;;;;;;;0.93;0.70;;;20.00;99.90;;;;;;4973507;28;20435;-91
2022/09/08 10:29:31;;;;;;;1.20;0.70;;;19.60;99.90;;;;;;4976201;28;20477;-90
2022/09/08 10:32:15;;;;;;;0.73;0.73;;;19.60;99.90;;;;;;4973252;28;21046;-88
2022/09/08 10:34:40;;;;;;;6.03;0.80;;;19.80;99.90;;;;;;4972815;28;20853;-90
2022/09/08 10:37:33;;;;;;;3.90;1.00;;;19.80;99.90;;;;;;4988985;28;20426;-90
2022/09/08 10:40:26;;;;;;;1.07;0.70;;;19.80;99.90;;;;;;4972029;28;20414;-91
2022/09/08 10:42:54;;;;;;;0.50;0.40;;;19.80;99.90;;;;;;4973083;28;20433;-90
2022/09/08 10:45:38;;;;;;;1.53;0.87;;;20.00;99.90;;;;;;4977278;28;20943;-89
2022/09/08 10:48:42;;;;;;;0.80;0.60;;;20.00;99.90;;;;;;4961492;28;20438;-90
2022/09/08 10:51:46;;;;;;;1.40;0.87;;;20.00;99.90;;;;;;4985143;28;20475;-89
2022/09/08 10:54:36;;;;;;;2.33;0.63;;;20.10;99.90;;;;;;4984719;28;20909;-90
2022/09/08 10:57:19;;;;;;;1.33;0.80;;;20.00;99.90;;;;;;4979880;28;20449;-90
2022/09/08 11:00:07;;;;;;;1.40;0.63;;;19.90;99.90;;;;;;4972123;28;20453;-90
2022/09/08 11:02:51;;;;;;;1.70;0.70;;;19.80;99.90;;;;;;4971981;28;21110;-91
2022/09/08 11:05:40;;;;;;;3.70;1.00;;;19.70;99.90;;;;;;4974782;28;20432;-90
2022/09/08 11:08:24;;;;;;;0.90;0.63;;;19.80;99.90;;;;;;4967717;28;20847;-91
2022/09/08 11:11:11;;;;;;;2.53;0.73;;;19.80;99.90;;;;;;4971262;28;20445;-90
2022/09/08 11:13:59;;;;;;;1.90;0.67;;;20.50;99.90;;;;;;4965676;28;20431;-91
2022/09/08 11:16:54;;;;;;;3.60;0.73;;;20.50;99.90;;;;;;4977192;28;20541;-90
2022/09/08 11:19:37;;;;;;;2.13;0.83;;;20.30;99.90;;;;;;4971146;28;20852;-90
2022/09/08 11:22:37;;;;;;;2.10;0.80;;;20.60;99.90;;;;;;4971000;28;20525;-89
2022/09/08 11:25:37;;;;;;;1.50;0.60;;;20.70;99.90;;;;;;4969940;28;20796;-90
2022/09/08 11:28:30;;;;;;;1.70;0.90;;;21.10;99.90;;;;;;4983085;28;20869;-89
2022/09/08 11:30:56;;;;;;;0.80;0.50;;;21.10;99.90;;;;;;4987127;28;20444;-89
2022/09/08 11:33:38;;;;;;;2.10;0.53;;;21.20;99.90;;;;;;4970447;28;20415;-90
2022/09/08 11:36:29;;;;;;;1.83;0.80;;;21.20;99.90;;;;;;4981448;28;20189;-90
2022/09/08 11:39:05;;;;;;;4.10;0.90;;;21.60;99.90;;;;;;4964325;28;20458;-90
2022/09/08 11:41:47;;;;;;;3.47;1.00;;;21.60;99.90;;;;;;4969376;28;20794;-90
2022/09/08 11:44:31;;;;;;;1.63;1.27;;;21.60;99.90;;;;;;4985700;28;20417;-89
2022/09/08 11:47:21;;;;;;;4.60;0.90;;;21.80;99.90;;;;;;4971817;28;20421;-90
2022/09/08 11:50:13;;;;;;;3.03;1.33;;;21.40;99.90;;;;;;4976505;28;21095;-90
2022/09/08 11:52:46;;;;;;;6.53;0.90;;;21.00;99.90;;;;;;4987464;28;20429;-90
2022/09/08 11:55:49;;;;;;;2.13;0.90;;;21.10;99.90;;;;;;4967702;28;21236;-91
2022/09/08 11:58:37;;;;;;;2.93;0.93;;;22.00;99.90;;;;;;4987965;28;20867;-90
2022/09/08 12:01:14;;;;;;;1.60;0.73;;;21.80;99.90;;;;;;4976316;28;20458;-90
2022/09/08 12:04:40;;;;;;;1.20;0.70;;;21.80;99.90;;;;;;4967705;28;20961;-91
2022/09/08 12:07:44;;;;;;;1.13;0.50;;;22.20;99.90;;;;;;4944760;28;20568;-91
2022/09/08 12:10:36;;;;;;;2.50;0.80;;;22.40;99.90;;;;;;4922581;28;20489;-90
2022/09/08 12:13:29;;;;;;;2.90;0.70;;;22.00;99.90;;;;;;4988628;28;20434;-90
2022/09/08 12:16:09;;;;;;;7.23;1.63;;;22.00;99.90;;;;;;4969554;28;20492;-90
2022/09/08 12:19:07;;;;;;;6.50;1.30;;;22.00;99.90;;;;;;4979997;28;20417;-89
2022/09/08 12:21:32;;;;;;;2.57;1.57;;;22.10;99.90;;;;;;4966591;28;20433;-89
2022/09/08 12:24:32;;;;;;;4.93;1.00;;;21.80;99.90;;;;;;4972680;28;20430;-91
2022/09/08 12:26:58;;;;;;;2.47;1.00;;;;;;;;;;4996141;28;20213;-90
2022/09/08 12:29:44;;;;;;;3.00;0.90;;;21.60;99.90;;;;;;4975829;28;20505;-91
2022/09/08 12:32:25;;;;;;;1.93;0.90;;;21.90;99.90;;;;;;4967550;28;20437;-91
2022/09/08 12:35:30;;;;;;;3.67;1.03;;;21.70;99.90;;;;;;4973371;28;20440;-90
2022/09/08 12:38:21;;;;;;;2.43;0.70;;;21.60;99.90;;;;;;4992828;28;20435;-91
2022/09/08 12:41:02;;;;;;;3.13;0.97;;;22.50;99.90;;;;;;4976880;28;20913;-90
2022/09/08 12:43:40;;;;;;;6.30;1.70;;;22.50;99.90;;;;;;4975534;28;20421;-91
2022/09/08 12:46:22;;;;;;;3.37;0.90;;;23.10;99.90;;;;;;4972143;28;20488;-90
2022/09/08 12:48:53;;;;;;;2.77;0.90;;;23.10;99.90;;;;;;4971455;28;20470;-90
2022/09/08 12:51:37;;;;;;;4.53;1.50;;;23.00;99.90;;;;;;4984807;23;20513;-89
2022/09/08 12:54:33;;;;;;;4.23;1.30;;;23.50;99.90;;;;;;4954333;28;20455;-87
2022/09/08 12:57:15;;;;;;;5.47;1.20;;;24.00;99.90;;;;;;4967399;28;20538;-87
2022/09/08 13:00:07;;;;;;;3.10;1.33;;;23.40;99.90;;;;;;4954950;28;20503;-89
2022/09/08 13:03:09;;;;;;;3.40;1.27;;;23.60;99.90;;;;;;4957940;28;20477;-87
2022/09/08 13:06:03;;;;;;;5.07;1.80;;;23.40;99.90;;;;;;4953925;28;20439;-88
2022/09/08 13:08:51;;;;;;;2.67;1.13;;;23.10;99.90;;;;;;4946336;28;20740;-89
2022/09/08 13:11:44;;;;;;;1.83;1.13;;;24.00;99.90;;;;;;4951508;28;20435;-89
2022/09/08 13:14:11;;;;;;;2.30;0.63;;;24.10;99.90;;;;;;4951633;28;20439;-89
2022/09/08 13:17:13;;;;;;;4.70;0.90;;;24.50;99.90;;;;;;4954978;28;20466;-89
2022/09/08 13:19:56;;;;;;;3.90;1.00;;;23.20;99.90;;;;;;4940013;28;20481;-89
2022/09/08 13:22:46;;;;;;;4.27;0.90;;;22.30;99.90;;;;;;4948461;28;20865;-89
2022/09/08 13:25:38;;;;;;;4.00;0.93;;;22.60;99.90;;;;;;4938956;28;20448;-89
2022/09/08 13:28:35;;;;;;;5.57;1.00;;;22.60;99.90;;;;;;4952205;28;20582;-89
2022/09/08 13:31:37;;;;;;;3.10;0.90;;;22.60;99.90;;;;;;4932765;28;20454;-89
2022/09/08 13:37:04;;;;;;;7.57;1.10;;;23.00;99.90;;;;;;4981245;28;20484;-89
2022/09/08 13:39:33;;;;;;;3.60;1.10;;;22.30;99.90;;;;;;4985638;28;22152;-88
2022/09/08 13:42:28;;;;;;;2.20;1.03;;;22.20;99.90;;;;;;4968559;28;21120;-88
2022/09/08 13:45:12;;;;;;;5.07;1.07;;;22.30;99.90;;;;;;4938695;28;21367;-88
2022/09/08 13:47:44;;;;;;;7.20;1.17;;;22.00;99.90;;;;;;4934331;28;20514;-89
2022/09/08 13:50:50;;;;;;;2.87;1.37;;;22.00;99.90;;;;;;4948116;28;20471;-89
2022/09/08 13:53:34;;;;;;;3.40;0.83;;;22.30;99.90;;;;;;4941659;28;21225;-87